createdAt,value
2023-05-11T00:09:13.925Z,32.67
2023-05-11T00:14:18.740Z,37.67
2023-05-11T00:19:24.484Z,37.00
2023-05-11T00:24:29.874Z,32.00
2023-05-11T00:29:35.037Z,29.67
2023-05-11T00:34:40.458Z,37.33
2023-05-11T00:39:45.343Z,33.33
2023-05-11T00:44:50.371Z,36.50
2023-05-11T00:49:56.227Z,43.00
2023-05-11T00:55:00.935Z,47.25
2023-05-11T01:10:35.871Z,36.00
2023-05-11T01:15:53.843Z,38.00
2023-05-11T01:21:06.724Z,37.25
2023-05-11T01:26:30.067Z,39.50
2023-05-11T01:31:37.375Z,45.67
2023-05-11T01:36:53.177Z,46.25
2023-05-11T01:42:06.133Z,45.00
2023-05-11T01:47:14.958Z,44.67
2023-05-11T01:52:22.763Z,44.50
2023-05-11T01:57:29.900Z,43.33
2023-05-11T02:02:37.110Z,43.33
2023-05-11T02:07:46.402Z,42.50
2023-05-11T02:12:53.657Z,44.75
2023-05-11T02:18:01.098Z,39.00
2023-05-11T02:23:08.852Z,37.50
2023-05-11T02:28:14.173Z,40.67
2023-05-11T02:33:33.843Z,42.67
2023-05-11T02:38:41.220Z,42.50
2023-05-11T02:43:52.262Z,42.00
2023-05-11T02:49:02.314Z,44.75
2023-05-11T02:54:12.587Z,42.50
2023-05-11T02:59:23.007Z,40.50
2023-05-11T03:04:28.613Z,43.33
2023-05-11T03:09:36.224Z,44.33
2023-05-11T03:14:42.501Z,42.00
2023-05-11T03:19:48.668Z,40.75
2023-05-11T03:24:55.165Z,42.75
2023-05-11T03:30:01.966Z,43.25
2023-05-11T03:35:13.075Z,40.75
2023-05-11T03:40:21.231Z,34.75
2023-05-11T03:45:32.852Z,41.25
2023-05-11T03:50:41.371Z,43.67
2023-05-11T03:55:46.519Z,34.25
2023-05-11T04:00:52.123Z,32.33
2023-05-11T04:05:57.305Z,28.75
2023-05-11T04:11:03.134Z,29.00
2023-05-11T04:16:09.057Z,29.50
2023-05-11T04:21:15.687Z,24.25
2023-05-11T04:26:20.716Z,26.50
2023-05-11T04:31:25.646Z,31.33
2023-05-11T04:36:31.316Z,33.25
2023-05-11T04:41:36.850Z,29.00
2023-05-11T04:51:48.283Z,29.00
2023-05-11T04:56:53.541Z,30.00
2023-05-11T05:02:00.487Z,31.00
2023-05-11T05:07:05.884Z,31.25
2023-05-11T05:17:15.881Z,24.50
2023-05-11T05:22:25.926Z,29.00
2023-05-11T05:27:34.921Z,31.67
2023-05-11T05:32:44.335Z,33.50
2023-05-11T05:37:49.543Z,32.00
2023-05-11T05:42:56.630Z,35.00
2023-05-11T05:48:03.025Z,37.50
2023-05-11T05:53:09.079Z,27.33
2023-05-11T05:58:15.162Z,35.00
2023-05-11T06:03:22.476Z,38.25
2023-05-11T06:08:32.338Z,34.00
2023-05-11T06:18:44.678Z,28.00
2023-05-11T06:23:50.504Z,34.00
2023-05-11T06:28:56.196Z,28.75
2023-05-11T06:34:02.275Z,32.00
2023-05-11T06:39:09.067Z,29.33
2023-05-11T06:44:14.497Z,27.75
2023-05-11T06:49:22.728Z,25.00
2023-05-11T06:54:27.932Z,29.67
2023-05-11T06:59:34.005Z,30.75
2023-05-11T07:04:39.117Z,29.50
2023-05-11T07:09:44.060Z,27.33
2023-05-11T07:14:48.874Z,26.25
2023-05-11T07:19:54.077Z,25.00
2023-05-11T07:24:59.016Z,29.00
2023-05-11T07:30:05.150Z,26.75
2023-05-11T07:35:10.706Z,24.67
2023-05-11T07:40:19.687Z,27.25
2023-05-11T07:45:24.778Z,29.67
2023-05-11T07:50:29.954Z,29.00
2023-05-11T07:55:34.781Z,22.75
2023-05-11T08:00:39.500Z,22.25
2023-05-11T08:05:45.969Z,21.00
2023-05-11T08:10:50.813Z,23.33
2023-05-11T08:15:55.864Z,22.75
2023-05-11T08:21:01.512Z,19.00
2023-05-11T08:26:06.533Z,21.50
2023-05-11T08:31:11.569Z,23.00
2023-05-11T08:36:16.692Z,23.25
2023-05-11T08:41:21.415Z,15.25
2023-05-11T08:46:30.896Z,15.00
2023-05-11T08:51:43.329Z,20.00
2023-05-11T08:56:53.846Z,20.50
2023-05-11T09:02:00.161Z,16.00
2023-05-11T09:07:05.362Z,12.25
2023-05-11T09:12:15.364Z,18.50
2023-05-11T09:17:20.393Z,15.33
2023-05-11T09:22:26.487Z,13.00
2023-05-11T09:27:33.461Z,15.00
2023-05-11T09:33:04.764Z,25.75
2023-05-11T09:38:12.110Z,16.67
2023-05-11T09:43:23.050Z,24.00
2023-05-11T09:48:33.608Z,26.00
2023-05-11T09:53:47.554Z,23.50
2023-05-11T09:58:56.070Z,17.75
2023-05-11T10:04:21.069Z,21.25
2023-05-11T10:09:28.640Z,23.67
2023-05-11T10:14:35.354Z,24.00
2023-05-11T10:19:40.713Z,25.75
2023-05-11T10:24:46.140Z,23.00
2023-05-11T10:29:51.992Z,25.25
2023-05-11T10:34:58.752Z,20.67
2023-05-11T10:40:04.185Z,24.50
2023-05-11T10:45:09.124Z,20.75
2023-05-11T10:50:42.738Z,31.00
2023-05-11T10:56:28.325Z,26.50
2023-05-11T11:01:42.502Z,28.00
2023-05-11T11:06:48.081Z,31.75
2023-05-11T11:11:54.189Z,28.50
2023-05-11T11:17:28.447Z,34.33
2023-05-11T11:22:39.939Z,28.33
2023-05-11T11:27:59.454Z,29.67
2023-05-11T11:33:12.855Z,29.50
2023-05-11T11:38:23.016Z,34.25
2023-05-11T11:43:30.954Z,33.00
2023-05-11T11:48:43.617Z,36.75
2023-05-11T11:53:53.167Z,34.25
2023-05-11T11:59:02.369Z,40.00
2023-05-11T12:04:07.869Z,30.00
2023-05-11T12:14:19.416Z,34.00
2023-05-11T12:19:26.900Z,35.00
2023-05-11T12:24:33.491Z,35.33
2023-05-11T12:29:40.779Z,34.00
2023-05-11T12:35:03.619Z,35.00
2023-05-11T12:45:20.122Z,36.50
2023-05-11T12:50:26.378Z,35.25
2023-05-11T12:55:32.949Z,36.33
2023-05-11T13:00:38.638Z,30.50
2023-05-11T13:05:44.419Z,35.50
2023-05-11T13:10:50.922Z,37.33
2023-05-11T13:15:59.980Z,37.67
2023-05-11T13:21:10.004Z,37.50
2023-05-11T13:26:25.801Z,37.50
2023-05-11T13:36:42.996Z,35.50
2023-05-11T13:41:48.828Z,38.00
2023-05-11T13:46:55.261Z,35.50
2023-05-11T13:52:02.790Z,34.50
2023-05-11T13:57:09.527Z,33.00
2023-05-11T14:02:15.653Z,36.00
2023-05-11T14:07:23.869Z,34.75
2023-05-11T14:12:31.075Z,34.25
2023-05-11T14:17:36.626Z,35.50
2023-05-11T14:22:46.250Z,35.33
2023-05-11T14:27:55.760Z,35.75
2023-05-11T14:33:02.367Z,38.00
2023-05-11T14:38:09.678Z,40.00
2023-05-11T14:43:18.253Z,35.75
2023-05-11T14:48:32.586Z,37.67
2023-05-11T14:53:38.193Z,32.25
2023-05-11T14:58:44.771Z,31.00
2023-05-11T15:03:50.737Z,35.75
2023-05-11T15:08:56.415Z,35.00
2023-05-11T15:14:02.444Z,36.67
2023-05-11T15:19:11.877Z,36.00
2023-05-11T15:24:17.414Z,36.00
2023-05-11T15:29:23.547Z,40.00
2023-05-11T15:34:29.423Z,36.67
2023-05-11T15:39:35.540Z,37.75
2023-05-11T15:44:41.252Z,34.25
2023-05-11T15:49:46.940Z,32.50
2023-05-11T15:54:52.780Z,31.00
2023-05-11T15:59:59.054Z,32.00
2023-05-11T16:05:06.104Z,32.33
2023-05-11T16:10:12.351Z,32.00
2023-05-11T16:15:18.401Z,27.00
2023-05-11T16:20:24.733Z,35.00
2023-05-11T16:25:31.048Z,33.75
2023-05-11T16:30:38.600Z,37.00
2023-05-11T16:35:45.452Z,29.00
2023-05-11T16:40:51.928Z,29.75
2023-05-11T16:45:58.239Z,33.25
2023-05-11T16:51:03.701Z,30.00
2023-05-11T16:56:09.311Z,30.25
2023-05-11T17:06:21.573Z,26.75
2023-05-11T17:11:27.059Z,27.75
2023-05-11T17:16:32.510Z,30.50
2023-05-11T17:26:47.782Z,30.75
2023-05-11T17:31:54.041Z,29.00
2023-05-11T17:36:59.835Z,30.00
2023-05-11T17:42:04.907Z,25.25
2023-05-11T17:47:10.327Z,33.25
2023-05-11T17:52:18.331Z,27.00
2023-05-11T17:57:24.942Z,28.33
2023-05-11T18:02:30.362Z,31.00
2023-05-11T18:07:36.036Z,29.50
2023-05-11T18:12:41.310Z,26.75
2023-05-11T18:17:46.521Z,27.75
2023-05-11T18:22:51.987Z,32.00
2023-05-11T18:33:03.150Z,28.75
2023-05-11T18:38:09.069Z,31.00
2023-05-11T18:43:15.131Z,35.33
2023-05-11T18:48:21.634Z,29.50
2023-05-11T18:53:28.756Z,23.00
2023-05-11T18:58:34.216Z,30.67
2023-05-11T19:03:39.843Z,38.33
2023-05-11T19:08:45.190Z,31.50
2023-05-11T19:13:51.667Z,30.25
2023-05-11T19:18:58.184Z,26.50
2023-05-11T19:24:03.530Z,34.50
2023-05-11T19:29:15.158Z,33.75
2023-05-11T19:34:20.503Z,29.67
2023-05-11T19:39:26.422Z,31.33
2023-05-11T19:44:35.788Z,32.50
2023-05-11T19:49:41.406Z,38.00
2023-05-11T19:54:46.822Z,35.33
2023-05-11T19:59:52.213Z,32.33
2023-05-11T20:04:57.548Z,29.50
2023-05-11T20:10:03.109Z,30.00
2023-05-11T20:15:10.271Z,28.25
2023-05-11T20:20:15.756Z,33.00
2023-05-11T20:25:21.610Z,33.50
2023-05-11T20:30:27.122Z,31.00
2023-05-11T20:35:34.210Z,33.50
2023-05-11T20:40:39.949Z,38.33
2023-05-11T20:45:45.234Z,36.75
2023-05-11T20:50:55.478Z,37.50
2023-05-11T20:56:02.459Z,32.00
2023-05-11T21:01:07.938Z,33.00
2023-05-11T21:06:13.117Z,30.33
2023-05-11T21:11:18.213Z,33.75
2023-05-11T21:16:22.963Z,26.50
2023-05-11T21:21:28.010Z,35.67
2023-05-11T21:26:33.077Z,92.00
2023-05-11T21:31:38.144Z,104.75
2023-05-11T21:36:43.389Z,36.75
2023-05-11T21:41:49.125Z,36.50
2023-05-11T21:46:54.263Z,34.50
2023-05-11T21:51:59.261Z,36.00
2023-05-11T21:57:05.125Z,37.00
2023-05-11T22:02:10.098Z,37.50
2023-05-11T22:07:15.308Z,39.00
2023-05-11T22:12:20.083Z,40.33
2023-05-11T22:17:24.983Z,35.75
2023-05-11T22:22:30.214Z,35.33
2023-05-11T22:27:36.465Z,34.50
2023-05-11T22:32:41.544Z,33.33
2023-05-11T22:37:46.518Z,38.33
2023-05-11T22:42:51.715Z,34.25
2023-05-11T22:47:56.737Z,26.25
2023-05-11T22:53:01.952Z,28.67
2023-05-11T22:58:06.920Z,39.33
2023-05-11T23:03:13.004Z,36.25
2023-05-11T23:08:18.062Z,35.25
2023-05-11T23:13:23.772Z,31.50
2023-05-11T23:18:29.627Z,38.50
2023-05-11T23:23:34.466Z,41.50
2023-05-11T23:28:39.325Z,41.00
2023-05-11T23:33:44.366Z,43.50
2023-05-11T23:38:49.464Z,37.67
2023-05-11T23:43:54.095Z,34.33
2023-05-11T23:48:59.020Z,38.33
2023-05-11T23:54:03.944Z,38.50
2023-05-11T23:59:08.749Z,37.50
